sensor_id;sensor_type;location;lat;lon;timestamp;temperature;humidity
796;DHT22;381;48.770;9.188;2023-06-22T00:04:35;23.00;99.90
796;DHT22;381;48.770;9.188;2023-06-22T00:09:38;23.00;99.90
796;DHT22;381;48.770;9.188;2023-06-22T00:14:40;23.00;99.90
796;DHT22;381;48.770;9.188;2023-06-22T00:19:42;22.90;99.90
796;DHT22;381;48.770;9.188;2023-06-22T00:24:46;22.90;99.90
796;DHT22;381;48.770;9.188;2023-06-22T00:29:48;22.90;99.90
796;DHT22;381;48.770;9.188;2023-06-22T00:34:50;22.90;99.90
796;DHT22;381;48.770;9.188;2023-06-22T00:39:54;22.80;99.90
796;DHT22;381;48.770;9.188;2023-06-22T00:44:56;22.80;99.90
796;DHT22;381;48.770;9.188;2023-06-22T00:49:59;22.80;99.90
796;DHT22;381;48.770;9.188;2023-06-22T00:55:04;22.80;99.90
796;DHT22;381;48.770;9.188;2023-06-22T01:00:08;22.70;99.90
796;DHT22;381;48.770;9.188;2023-06-22T01:05:13;22.70;99.90
796;DHT22;381;48.770;9.188;2023-06-22T01:10:24;22.70;99.90
796;DHT22;381;48.770;9.188;2023-06-22T01:15:30;22.70;99.90
796;DHT22;381;48.770;9.188;2023-06-22T01:20:36;22.70;99.90
796;DHT22;381;48.770;9.188;2023-06-22T01:25:47;22.70;99.90
796;DHT22;381;48.770;9.188;2023-06-22T01:30:52;22.60;99.90
796;DHT22;381;48.770;9.188;2023-06-22T01:36:52;22.60;99.90
796;DHT22;381;48.770;9.188;2023-06-22T01:42:10;22.50;99.90
796;DHT22;381;48.770;9.188;2023-06-22T01:47:32;22.50;99.90
796;DHT22;381;48.770;9.188;2023-06-22T01:52:37;22.50;99.90
796;DHT22;381;48.770;9.188;2023-06-22T01:57:49;22.40;99.90
796;DHT22;381;48.770;9.188;2023-06-22T02:03:21;22.40;99.90
796;DHT22;381;48.770;9.188;2023-06-22T02:08:46;22.40;99.90
796;DHT22;381;48.770;9.188;2023-06-22T02:14:05;22.40;99.90
796;DHT22;381;48.770;9.188;2023-06-22T02:19:42;22.30;99.90
796;DHT22;381;48.770;9.188;2023-06-22T02:25:18;22.20;99.90
796;DHT22;381;48.770;9.188;2023-06-22T02:30:57;22.20;99.90
796;DHT22;381;48.770;9.188;2023-06-22T02:36:06;22.20;99.90
796;DHT22;381;48.770;9.188;2023-06-22T02:41:14;22.20;99.90
796;DHT22;381;48.770;9.188;2023-06-22T02:46:18;22.10;99.90
796;DHT22;381;48.770;9.188;2023-06-22T02:51:22;22.10;99.90
796;DHT22;381;48.770;9.188;2023-06-22T02:56:28;22.10;99.90
796;DHT22;381;48.770;9.188;2023-06-22T03:01:34;22.10;99.90
796;DHT22;381;48.770;9.188;2023-06-22T03:06:45;22.10;99.90
796;DHT22;381;48.770;9.188;2023-06-22T03:11:51;22.00;99.90
796;DHT22;381;48.770;9.188;2023-06-22T03:17:05;22.00;99.90
796;DHT22;381;48.770;9.188;2023-06-22T03:22:15;22.00;99.90
796;DHT22;381;48.770;9.188;2023-06-22T03:27:20;22.00;99.90
796;DHT22;381;48.770;9.188;2023-06-22T03:32:22;21.90;99.90
796;DHT22;381;48.770;9.188;2023-06-22T03:37:26;21.90;99.90
796;DHT22;381;48.770;9.188;2023-06-22T03:42:29;21.90;99.90
796;DHT22;381;48.770;9.188;2023-06-22T03:47:31;21.90;99.90
796;DHT22;381;48.770;9.188;2023-06-22T03:52:35;21.80;99.90
796;DHT22;381;48.770;9.188;2023-06-22T03:57:37;21.80;99.90
796;DHT22;381;48.770;9.188;2023-06-22T04:02:40;21.80;99.90
796;DHT22;381;48.770;9.188;2023-06-22T04:07:46;21.80;99.90
796;DHT22;381;48.770;9.188;2023-06-22T04:12:48;21.90;99.90
796;DHT22;381;48.770;9.188;2023-06-22T04:17:50;21.90;99.90
796;DHT22;381;48.770;9.188;2023-06-22T04:22:54;21.90;99.90
796;DHT22;381;48.770;9.188;2023-06-22T04:27:56;21.90;99.90
796;DHT22;381;48.770;9.188;2023-06-22T04:32:58;22.00;99.90
796;DHT22;381;48.770;9.188;2023-06-22T04:38:02;22.00;99.90
796;DHT22;381;48.770;9.188;2023-06-22T04:43:04;22.00;99.90
796;DHT22;381;48.770;9.188;2023-06-22T04:48:07;22.10;99.90
796;DHT22;381;48.770;9.188;2023-06-22T04:53:11;22.10;99.90
796;DHT22;381;48.770;9.188;2023-06-22T04:58:14;22.20;99.90
796;DHT22;381;48.770;9.188;2023-06-22T05:03:16;22.30;99.90
796;DHT22;381;48.770;9.188;2023-06-22T05:08:20;22.40;99.90
796;DHT22;381;48.770;9.188;2023-06-22T05:13:27;22.40;99.90
796;DHT22;381;48.770;9.188;2023-06-22T05:18:32;22.50;99.90
796;DHT22;381;48.770;9.188;2023-06-22T05:23:36;22.60;99.90
796;DHT22;381;48.770;9.188;2023-06-22T05:28:41;22.70;99.90
796;DHT22;381;48.770;9.188;2023-06-22T05:33:47;22.80;99.90
796;DHT22;381;48.770;9.188;2023-06-22T05:38:51;23.00;99.90
796;DHT22;381;48.770;9.188;2023-06-22T05:43:55;23.20;99.90
796;DHT22;381;48.770;9.188;2023-06-22T05:48:57;23.40;99.90
796;DHT22;381;48.770;9.188;2023-06-22T05:54:00;23.50;99.90
796;DHT22;381;48.770;9.188;2023-06-22T05:59:03;23.60;99.90
796;DHT22;381;48.770;9.188;2023-06-22T06:04:05;23.70;99.90
796;DHT22;381;48.770;9.188;2023-06-22T06:09:10;23.80;99.90
796;DHT22;381;48.770;9.188;2023-06-22T06:14:13;23.70;99.90
796;DHT22;381;48.770;9.188;2023-06-22T06:19:15;23.70;99.90
796;DHT22;381;48.770;9.188;2023-06-22T06:24:19;23.80;99.90
796;DHT22;381;48.770;9.188;2023-06-22T06:29:21;23.80;99.90
796;DHT22;381;48.770;9.188;2023-06-22T06:34:24;23.80;99.90
796;DHT22;381;48.770;9.188;2023-06-22T06:39:28;23.90;99.90
796;DHT22;381;48.770;9.188;2023-06-22T06:44:30;24.10;99.90
796;DHT22;381;48.770;9.188;2023-06-22T06:49:35;24.30;99.90
796;DHT22;381;48.770;9.188;2023-06-22T06:54:38;24.60;99.90
796;DHT22;381;48.770;9.188;2023-06-22T06:59:45;24.80;99.90
796;DHT22;381;48.770;9.188;2023-06-22T07:04:49;25.10;99.90
796;DHT22;381;48.770;9.188;2023-06-22T07:09:52;25.40;99.90
796;DHT22;381;48.770;9.188;2023-06-22T07:15:01;25.70;99.90
796;DHT22;381;48.770;9.188;2023-06-22T07:20:05;26.00;99.90
796;DHT22;381;48.770;9.188;2023-06-22T07:25:12;26.40;99.90
796;DHT22;381;48.770;9.188;2023-06-22T07:30:16;26.90;99.90
796;DHT22;381;48.770;9.188;2023-06-22T07:35:18;27.30;99.90
796;DHT22;381;48.770;9.188;2023-06-22T07:40:22;27.70;99.90
796;DHT22;381;48.770;9.188;2023-06-22T07:45:24;28.20;99.90
796;DHT22;381;48.770;9.188;2023-06-22T07:50:26;28.50;99.90
796;DHT22;381;48.770;9.188;2023-06-22T07:55:30;28.90;99.90
796;DHT22;381;48.770;9.188;2023-06-22T08:00:33;29.40;99.30
796;DHT22;381;48.770;9.188;2023-06-22T08:05:40;29.80;99.60
796;DHT22;381;48.770;9.188;2023-06-22T08:10:43;30.10;98.70
796;DHT22;381;48.770;9.188;2023-06-22T08:15:45;30.60;98.40
796;DHT22;381;48.770;9.188;2023-06-22T08:20:48;31.00;95.80
796;DHT22;381;48.770;9.188;2023-06-22T08:25:51;31.20;95.90
796;DHT22;381;48.770;9.188;2023-06-22T08:30:53;31.10;95.50
796;DHT22;381;48.770;9.188;2023-06-22T08:35:58;30.90;94.90
796;DHT22;381;48.770;9.188;2023-06-22T08:41:02;30.50;95.40
796;DHT22;381;48.770;9.188;2023-06-22T08:46:04;30.60;95.10
796;DHT22;381;48.770;9.188;2023-06-22T08:51:06;30.80;95.00
796;DHT22;381;48.770;9.188;2023-06-22T08:56:09;30.90;94.60
796;DHT22;381;48.770;9.188;2023-06-22T09:01:11;30.70;93.70
796;DHT22;381;48.770;9.188;2023-06-22T09:06:16;31.00;92.30
796;DHT22;381;48.770;9.188;2023-06-22T09:11:19;31.30;92.70
796;DHT22;381;48.770;9.188;2023-06-22T09:16:21;31.30;92.50
796;DHT22;381;48.770;9.188;2023-06-22T09:21:24;31.10;92.70
796;DHT22;381;48.770;9.188;2023-06-22T09:26:27;31.60;93.30
796;DHT22;381;48.770;9.188;2023-06-22T09:31:29;32.60;91.60
796;DHT22;381;48.770;9.188;2023-06-22T09:36:31;33.50;89.80
796;DHT22;381;48.770;9.188;2023-06-22T09:41:35;34.40;87.50
796;DHT22;381;48.770;9.188;2023-06-22T09:46:37;35.30;83.00
796;DHT22;381;48.770;9.188;2023-06-22T09:51:48;36.00;77.10
796;DHT22;381;48.770;9.188;2023-06-22T09:56:53;36.40;76.70
796;DHT22;381;48.770;9.188;2023-06-22T10:01:55;36.60;76.00
796;DHT22;381;48.770;9.188;2023-06-22T10:06:57;36.70;73.90
796;DHT22;381;48.770;9.188;2023-06-22T10:12:00;36.40;72.70
796;DHT22;381;48.770;9.188;2023-06-22T10:17:03;35.60;73.90
796;DHT22;381;48.770;9.188;2023-06-22T10:22:07;34.80;74.90
796;DHT22;381;48.770;9.188;2023-06-22T10:27:11;34.00;78.30
796;DHT22;381;48.770;9.188;2023-06-22T10:32:14;33.60;77.80
796;DHT22;381;48.770;9.188;2023-06-22T10:37:16;33.40;77.50
796;DHT22;381;48.770;9.188;2023-06-22T10:42:19;33.20;80.00
796;DHT22;381;48.770;9.188;2023-06-22T10:47:22;33.20;77.80
796;DHT22;381;48.770;9.188;2023-06-22T10:52:24;32.90;77.20
796;DHT22;381;48.770;9.188;2023-06-22T10:57:27;32.70;76.90
796;DHT22;381;48.770;9.188;2023-06-22T11:02:29;32.40;80.40
796;DHT22;381;48.770;9.188;2023-06-22T11:07:31;32.00;82.70
796;DHT22;381;48.770;9.188;2023-06-22T11:12:35;31.90;84.20
796;DHT22;381;48.770;9.188;2023-06-22T11:17:37;31.70;83.80
796;DHT22;381;48.770;9.188;2023-06-22T11:22:40;31.60;84.00
796;DHT22;381;48.770;9.188;2023-06-22T11:27:44;31.40;84.90
796;DHT22;381;48.770;9.188;2023-06-22T11:32:46;31.20;85.20
796;DHT22;381;48.770;9.188;2023-06-22T11:37:48;31.10;87.70
796;DHT22;381;48.770;9.188;2023-06-22T11:42:52;31.10;87.30
796;DHT22;381;48.770;9.188;2023-06-22T11:47:54;31.20;86.60
796;DHT22;381;48.770;9.188;2023-06-22T11:52:56;31.30;89.30
796;DHT22;381;48.770;9.188;2023-06-22T11:57:59;31.30;85.60
796;DHT22;381;48.770;9.188;2023-06-22T12:03:04;31.40;86.20
796;DHT22;381;48.770;9.188;2023-06-22T12:08:06;31.40;87.60
796;DHT22;381;48.770;9.188;2023-06-22T12:13:09;31.40;85.20
796;DHT22;381;48.770;9.188;2023-06-22T12:18:12;31.30;85.80
796;DHT22;381;48.770;9.188;2023-06-22T12:23:15;31.20;86.70
796;DHT22;381;48.770;9.188;2023-06-22T12:28:18;31.10;84.70
796;DHT22;381;48.770;9.188;2023-06-22T12:33:20;30.90;86.50
796;DHT22;381;48.770;9.188;2023-06-22T12:38:23;30.90;89.10
796;DHT22;381;48.770;9.188;2023-06-22T12:43:27;30.80;90.00
796;DHT22;381;48.770;9.188;2023-06-22T12:48:29;30.50;89.80
796;DHT22;381;48.770;9.188;2023-06-22T12:53:31;30.30;89.30
796;DHT22;381;48.770;9.188;2023-06-22T12:58:35;30.30;87.50
796;DHT22;381;48.770;9.188;2023-06-22T13:03:37;30.30;88.30
796;DHT22;381;48.770;9.188;2023-06-22T13:08:39;30.30;88.70
796;DHT22;381;48.770;9.188;2023-06-22T13:13:44;30.20;89.90
796;DHT22;381;48.770;9.188;2023-06-22T13:18:46;30.10;90.50
796;DHT22;381;48.770;9.188;2023-06-22T13:23:48;30.10;91.10
796;DHT22;381;48.770;9.188;2023-06-22T13:28:52;30.10;92.00
796;DHT22;381;48.770;9.188;2023-06-22T13:33:54;30.20;92.20
796;DHT22;381;48.770;9.188;2023-06-22T13:38:57;30.20;92.10
796;DHT22;381;48.770;9.188;2023-06-22T13:44:00;30.20;90.20
796;DHT22;381;48.770;9.188;2023-06-22T13:49:02;30.20;91.00
796;DHT22;381;48.770;9.188;2023-06-22T13:54:04;30.20;90.20
796;DHT22;381;48.770;9.188;2023-06-22T13:59:08;30.30;91.40
796;DHT22;381;48.770;9.188;2023-06-22T14:04:11;30.20;91.80
796;DHT22;381;48.770;9.188;2023-06-22T14:09:13;30.20;92.20
796;DHT22;381;48.770;9.188;2023-06-22T14:14:17;30.20;92.00
796;DHT22;381;48.770;9.188;2023-06-22T14:19:19;30.20;91.40
796;DHT22;381;48.770;9.188;2023-06-22T14:24:21;30.30;87.60
796;DHT22;381;48.770;9.188;2023-06-22T14:29:26;30.40;85.00
796;DHT22;381;48.770;9.188;2023-06-22T14:34:28;30.40;82.80
796;DHT22;381;48.770;9.188;2023-06-22T14:39:30;30.40;82.80
796;DHT22;381;48.770;9.188;2023-06-22T14:44:34;30.50;83.20
796;DHT22;381;48.770;9.188;2023-06-22T14:49:36;30.60;77.40
796;DHT22;381;48.770;9.188;2023-06-22T14:54:40;30.60;76.20
796;DHT22;381;48.770;9.188;2023-06-22T15:00:13;30.50;75.50
796;DHT22;381;48.770;9.188;2023-06-22T15:05:16;30.30;70.40
796;DHT22;381;48.770;9.188;2023-06-22T15:10:18;30.30;66.70
796;DHT22;381;48.770;9.188;2023-06-22T15:15:23;30.20;69.50
796;DHT22;381;48.770;9.188;2023-06-22T15:20:26;30.20;68.40
796;DHT22;381;48.770;9.188;2023-06-22T15:25:28;30.20;65.50
796;DHT22;381;48.770;9.188;2023-06-22T15:30:31;30.20;66.00
796;DHT22;381;48.770;9.188;2023-06-22T15:35:33;30.20;65.00
796;DHT22;381;48.770;9.188;2023-06-22T15:40:35;30.20;65.70
796;DHT22;381;48.770;9.188;2023-06-22T15:45:39;30.10;73.80
796;DHT22;381;48.770;9.188;2023-06-22T15:50:41;30.00;69.20
796;DHT22;381;48.770;9.188;2023-06-22T15:55:43;30.10;71.70
796;DHT22;381;48.770;9.188;2023-06-22T16:00:49;30.10;68.30
796;DHT22;381;48.770;9.188;2023-06-22T16:05:52;30.10;67.60
796;DHT22;381;48.770;9.188;2023-06-22T16:10:54;30.10;67.00
796;DHT22;381;48.770;9.188;2023-06-22T16:15:57;30.10;67.60
796;DHT22;381;48.770;9.188;2023-06-22T16:21:00;30.00;67.40
796;DHT22;381;48.770;9.188;2023-06-22T16:26:02;30.00;69.50
796;DHT22;381;48.770;9.188;2023-06-22T16:31:05;29.90;67.30
796;DHT22;381;48.770;9.188;2023-06-22T16:36:07;29.90;68.90
796;DHT22;381;48.770;9.188;2023-06-22T16:41:10;29.80;68.80
796;DHT22;381;48.770;9.188;2023-06-22T16:46:13;29.70;71.00
796;DHT22;381;48.770;9.188;2023-06-22T16:51:16;29.50;71.60
796;DHT22;381;48.770;9.188;2023-06-22T16:56:18;29.40;72.50
796;DHT22;381;48.770;9.188;2023-06-22T17:01:22;29.30;70.10
796;DHT22;381;48.770;9.188;2023-06-22T17:06:25;29.20;67.40
796;DHT22;381;48.770;9.188;2023-06-22T17:11:28;29.10;69.30
796;DHT22;381;48.770;9.188;2023-06-22T17:16:31;29.00;70.80
796;DHT22;381;48.770;9.188;2023-06-22T17:21:35;28.90;70.50
796;DHT22;381;48.770;9.188;2023-06-22T17:26:38;28.90;71.40
796;DHT22;381;48.770;9.188;2023-06-22T17:31:42;28.70;71.40
796;DHT22;381;48.770;9.188;2023-06-22T17:36:47;28.60;71.00
796;DHT22;381;48.770;9.188;2023-06-22T17:41:50;28.60;67.30
796;DHT22;381;48.770;9.188;2023-06-22T17:46:54;28.50;67.40
796;DHT22;381;48.770;9.188;2023-06-22T17:51:57;28.40;67.50
796;DHT22;381;48.770;9.188;2023-06-22T17:56:59;28.30;69.30
796;DHT22;381;48.770;9.188;2023-06-22T18:02:07;28.30;69.80
796;DHT22;381;48.770;9.188;2023-06-22T18:07:10;28.20;69.50
796;DHT22;381;48.770;9.188;2023-06-22T18:12:13;28.00;70.10
796;DHT22;381;48.770;9.188;2023-06-22T18:17:17;27.90;70.30
796;DHT22;381;48.770;9.188;2023-06-22T18:22:22;27.90;69.60
796;DHT22;381;48.770;9.188;2023-06-22T18:27:25;27.80;69.60
796;DHT22;381;48.770;9.188;2023-06-22T18:32:30;27.70;70.10
796;DHT22;381;48.770;9.188;2023-06-22T18:37:33;27.50;71.30
796;DHT22;381;48.770;9.188;2023-06-22T18:42:39;27.40;72.20
796;DHT22;381;48.770;9.188;2023-06-22T18:47:55;27.30;74.30
796;DHT22;381;48.770;9.188;2023-06-22T18:53:04;27.20;73.50
796;DHT22;381;48.770;9.188;2023-06-22T18:58:13;27.10;75.20
796;DHT22;381;48.770;9.188;2023-06-22T19:03:31;27.00;74.70
796;DHT22;381;48.770;9.188;2023-06-22T19:14:18;26.60;77.40
796;DHT22;381;48.770;9.188;2023-06-22T19:19:24;26.50;77.00
796;DHT22;381;48.770;9.188;2023-06-22T19:24:29;26.50;77.70
796;DHT22;381;48.770;9.188;2023-06-22T19:29:32;26.40;78.10
796;DHT22;381;48.770;9.188;2023-06-22T19:34:40;26.30;77.70
796;DHT22;381;48.770;9.188;2023-06-22T19:39:45;26.20;78.60
796;DHT22;381;48.770;9.188;2023-06-22T19:44:48;26.20;78.70
796;DHT22;381;48.770;9.188;2023-06-22T19:49:58;26.00;79.70
796;DHT22;381;48.770;9.188;2023-06-22T19:55:02;25.90;81.40
796;DHT22;381;48.770;9.188;2023-06-22T20:00:07;25.80;82.40
796;DHT22;381;48.770;9.188;2023-06-22T20:05:14;25.70;82.90
796;DHT22;381;48.770;9.188;2023-06-22T20:10:18;25.60;83.40
796;DHT22;381;48.770;9.188;2023-06-22T20:15:21;25.50;84.50
796;DHT22;381;48.770;9.188;2023-06-22T20:20:26;25.40;85.10
796;DHT22;381;48.770;9.188;2023-06-22T20:25:30;25.40;85.80
796;DHT22;381;48.770;9.188;2023-06-22T20:30:32;25.40;86.60
796;DHT22;381;48.770;9.188;2023-06-22T20:35:37;25.30;86.70
796;DHT22;381;48.770;9.188;2023-06-22T20:40:39;25.30;87.20
796;DHT22;381;48.770;9.188;2023-06-22T20:45:41;25.20;88.00
796;DHT22;381;48.770;9.188;2023-06-22T20:50:45;25.20;88.60
796;DHT22;381;48.770;9.188;2023-06-22T20:55:47;25.20;89.50
796;DHT22;381;48.770;9.188;2023-06-22T21:00:49;25.20;89.80
796;DHT22;381;48.770;9.188;2023-06-22T21:05:52;25.20;90.50
796;DHT22;381;48.770;9.188;2023-06-22T21:10:55;25.20;90.50
796;DHT22;381;48.770;9.188;2023-06-22T21:15:57;25.20;90.30
796;DHT22;381;48.770;9.188;2023-06-22T21:21:01;25.10;90.80
796;DHT22;381;48.770;9.188;2023-06-22T21:26:03;25.10;91.10
796;DHT22;381;48.770;9.188;2023-06-22T21:31:05;25.20;91.20
796;DHT22;381;48.770;9.188;2023-06-22T21:36:09;25.10;90.90
796;DHT22;381;48.770;9.188;2023-06-22T21:41:11;25.00;90.80
796;DHT22;381;48.770;9.188;2023-06-22T21:46:13;25.00;90.20
796;DHT22;381;48.770;9.188;2023-06-22T21:51:16;24.80;89.50
796;DHT22;381;48.770;9.188;2023-06-22T21:56:18;24.80;90.20
796;DHT22;381;48.770;9.188;2023-06-22T22:01:20;24.70;90.30
796;DHT22;381;48.770;9.188;2023-06-22T22:06:24;24.60;90.10
796;DHT22;381;48.770;9.188;2023-06-22T22:11:27;24.60;90.40
796;DHT22;381;48.770;9.188;2023-06-22T22:16:29;24.50;89.30
796;DHT22;381;48.770;9.188;2023-06-22T22:21:33;24.50;89.60
796;DHT22;381;48.770;9.188;2023-06-22T22:26:35;24.50;89.80
796;DHT22;381;48.770;9.188;2023-06-22T22:31:37;24.40;88.80
796;DHT22;381;48.770;9.188;2023-06-22T22:36:40;24.40;88.90
796;DHT22;381;48.770;9.188;2023-06-22T22:41:42;24.30;88.60
796;DHT22;381;48.770;9.188;2023-06-22T22:46:44;24.30;89.90
796;DHT22;381;48.770;9.188;2023-06-22T22:51:49;24.20;90.50
796;DHT22;381;48.770;9.188;2023-06-22T22:56:51;24.20;90.20
796;DHT22;381;48.770;9.188;2023-06-22T23:01:53;24.20;89.90
796;DHT22;381;48.770;9.188;2023-06-22T23:06:56;24.10;90.10
796;DHT22;381;48.770;9.188;2023-06-22T23:11:58;24.10;90.50
796;DHT22;381;48.770;9.188;2023-06-22T23:17:00;24.10;90.50
796;DHT22;381;48.770;9.188;2023-06-22T23:22:06;24.10;91.00
796;DHT22;381;48.770;9.188;2023-06-22T23:27:08;24.00;91.00
796;DHT22;381;48.770;9.188;2023-06-22T23:32:13;24.00;91.20
796;DHT22;381;48.770;9.188;2023-06-22T23:37:17;24.00;91.30
796;DHT22;381;48.770;9.188;2023-06-22T23:42:19;24.00;91.50
796;DHT22;381;48.770;9.188;2023-06-22T23:47:22;24.00;91.30
796;DHT22;381;48.770;9.188;2023-06-22T23:52:25;24.00;91.30
796;DHT22;381;48.770;9.188;2023-06-22T23:57:27;24.00;91.60
